sensor_id;sensor_type;location;lat;lon;timestamp;temperature;humidity
43143;DHT22;28750;59.842;17.584;2022-12-26T00:01:59;1.80;99.90
43143;DHT22;28750;59.842;17.584;2022-12-26T00:04:26;1.90;99.90
43143;DHT22;28750;59.842;17.584;2022-12-26T00:06:53;1.90;99.90
43143;DHT22;28750;59.842;17.584;2022-12-26T00:09:20;1.90;99.90
43143;DHT22;28750;59.842;17.584;2022-12-26T00:11:47;1.90;99.90
43143;DHT22;28750;59.842;17.584;2022-12-26T00:14:15;1.90;99.90
43143;DHT22;28750;59.842;17.584;2022-12-26T00:16:44;1.90;99.90
43143;DHT22;28750;59.842;17.584;2022-12-26T00:19:12;1.90;99.90
43143;DHT22;28750;59.842;17.584;2022-12-26T00:21:39;1.90;99.90
43143;DHT22;28750;59.842;17.584;2022-12-26T00:24:06;1.90;99.90
43143;DHT22;28750;59.842;17.584;2022-12-26T00:26:34;2.00;99.90
43143;DHT22;28750;59.842;17.584;2022-12-26T00:29:02;1.90;99.90
43143;DHT22;28750;59.842;17.584;2022-12-26T00:31:32;1.90;99.90
43143;DHT22;28750;59.842;17.584;2022-12-26T00:34:00;2.00;99.90
43143;DHT22;28750;59.842;17.584;2022-12-26T00:36:29;2.00;99.90
43143;DHT22;28750;59.842;17.584;2022-12-26T00:38:58;2.00;99.90
43143;DHT22;28750;59.842;17.584;2022-12-26T00:41:26;1.90;99.90
43143;DHT22;28750;59.842;17.584;2022-12-26T00:43:54;1.90;99.90
43143;DHT22;28750;59.842;17.584;2022-12-26T00:46:21;2.00;99.90
43143;DHT22;28750;59.842;17.584;2022-12-26T00:48:48;2.00;99.90
43143;DHT22;28750;59.842;17.584;2022-12-26T00:51:15;2.00;99.90
43143;DHT22;28750;59.842;17.584;2022-12-26T00:53:43;2.10;99.90
43143;DHT22;28750;59.842;17.584;2022-12-26T00:56:10;2.00;99.90
43143;DHT22;28750;59.842;17.584;2022-12-26T00:58:37;2.10;99.90
43143;DHT22;28750;59.842;17.584;2022-12-26T01:01:12;2.00;99.90
43143;DHT22;28750;59.842;17.584;2022-12-26T01:03:40;2.10;99.90
43143;DHT22;28750;59.842;17.584;2022-12-26T01:06:07;2.10;99.90
43143;DHT22;28750;59.842;17.584;2022-12-26T01:08:34;2.10;99.90
43143;DHT22;28750;59.842;17.584;2022-12-26T01:11:10;2.10;99.90
43143;DHT22;28750;59.842;17.584;2022-12-26T01:13:38;2.10;99.90
43143;DHT22;28750;59.842;17.584;2022-12-26T01:16:06;2.10;99.90
43143;DHT22;28750;59.842;17.584;2022-12-26T01:18:34;2.00;99.90
43143;DHT22;28750;59.842;17.584;2022-12-26T01:21:04;2.00;99.90
43143;DHT22;28750;59.842;17.584;2022-12-26T01:23:32;2.00;99.90
43143;DHT22;28750;59.842;17.584;2022-12-26T01:25:59;2.00;99.90
43143;DHT22;28750;59.842;17.584;2022-12-26T01:28:26;2.10;99.90
43143;DHT22;28750;59.842;17.584;2022-12-26T01:30:52;2.10;99.90
43143;DHT22;28750;59.842;17.584;2022-12-26T01:33:20;2.00;99.90
43143;DHT22;28750;59.842;17.584;2022-12-26T01:35:51;2.00;99.90
43143;DHT22;28750;59.842;17.584;2022-12-26T01:38:19;2.00;99.90
43143;DHT22;28750;59.842;17.584;2022-12-26T01:40:47;2.00;99.90
43143;DHT22;28750;59.842;17.584;2022-12-26T01:43:53;2.00;99.90
43143;DHT22;28750;59.842;17.584;2022-12-26T01:46:43;2.00;99.90
43143;DHT22;28750;59.842;17.584;2022-12-26T01:51:43;2.00;99.90
43143;DHT22;28750;59.842;17.584;2022-12-26T01:54:12;2.00;99.90
43143;DHT22;28750;59.842;17.584;2022-12-26T01:56:42;2.10;99.90
43143;DHT22;28750;59.842;17.584;2022-12-26T01:59:18;2.10;99.90
43143;DHT22;28750;59.842;17.584;2022-12-26T02:01:47;2.10;99.90
43143;DHT22;28750;59.842;17.584;2022-12-26T02:04:19;2.10;99.90
43143;DHT22;28750;59.842;17.584;2022-12-26T02:07:17;2.10;99.90
43143;DHT22;28750;59.842;17.584;2022-12-26T02:09:44;2.10;99.90
43143;DHT22;28750;59.842;17.584;2022-12-26T02:12:28;2.00;99.90
43143;DHT22;28750;59.842;17.584;2022-12-26T02:14:57;2.00;99.90
43143;DHT22;28750;59.842;17.584;2022-12-26T02:17:25;2.10;99.90
43143;DHT22;28750;59.842;17.584;2022-12-26T02:20:17;2.10;99.90
43143;DHT22;28750;59.842;17.584;2022-12-26T02:47:54;2.10;99.90
43143;DHT22;28750;59.842;17.584;2022-12-26T02:50:25;2.10;99.90
43143;DHT22;28750;59.842;17.584;2022-12-26T02:56:17;2.10;99.90
43143;DHT22;28750;59.842;17.584;2022-12-26T02:59:17;2.10;99.90
43143;DHT22;28750;59.842;17.584;2022-12-26T03:02:27;2.10;99.90
43143;DHT22;28750;59.842;17.584;2022-12-26T03:05:19;2.20;99.90
43143;DHT22;28750;59.842;17.584;2022-12-26T03:08:06;2.10;99.90
43143;DHT22;28750;59.842;17.584;2022-12-26T03:10:53;2.20;99.90
43143;DHT22;28750;59.842;17.584;2022-12-26T03:13:40;2.20;99.90
43143;DHT22;28750;59.842;17.584;2022-12-26T03:16:09;2.20;99.90
43143;DHT22;28750;59.842;17.584;2022-12-26T03:18:58;2.20;99.90
43143;DHT22;28750;59.842;17.584;2022-12-26T03:21:33;2.20;99.90
43143;DHT22;28750;59.842;17.584;2022-12-26T03:24:01;2.20;99.90
43143;DHT22;28750;59.842;17.584;2022-12-26T03:26:32;2.30;99.90
43143;DHT22;28750;59.842;17.584;2022-12-26T03:29:18;2.30;99.90
43143;DHT22;28750;59.842;17.584;2022-12-26T03:32:06;2.30;99.90
43143;DHT22;28750;59.842;17.584;2022-12-26T03:34:39;2.40;99.90
43143;DHT22;28750;59.842;17.584;2022-12-26T03:40:48;2.40;99.90
43143;DHT22;28750;59.842;17.584;2022-12-26T03:43:46;2.40;99.90
43143;DHT22;28750;59.842;17.584;2022-12-26T03:46:35;2.50;99.90
43143;DHT22;28750;59.842;17.584;2022-12-26T03:49:40;2.50;99.90
43143;DHT22;28750;59.842;17.584;2022-12-26T03:55:27;2.60;99.90
43143;DHT22;28750;59.842;17.584;2022-12-26T03:58:23;2.50;99.90
43143;DHT22;28750;59.842;17.584;2022-12-26T04:01:17;2.50;99.90
43143;DHT22;28750;59.842;17.584;2022-12-26T04:04:05;2.60;99.90
43143;DHT22;28750;59.842;17.584;2022-12-26T04:06:54;2.60;99.90
43143;DHT22;28750;59.842;17.584;2022-12-26T04:09:50;2.60;99.90
43143;DHT22;28750;59.842;17.584;2022-12-26T04:12:37;2.60;99.90
43143;DHT22;28750;59.842;17.584;2022-12-26T04:15:43;2.60;99.90
43143;DHT22;28750;59.842;17.584;2022-12-26T04:21:47;2.60;99.90
43143;DHT22;28750;59.842;17.584;2022-12-26T04:24:39;2.60;99.90
43143;DHT22;28750;59.842;17.584;2022-12-26T04:27:28;2.60;99.90
43143;DHT22;28750;59.842;17.584;2022-12-26T04:30:12;2.60;99.90
43143;DHT22;28750;59.842;17.584;2022-12-26T04:33:09;2.60;99.90
43143;DHT22;28750;59.842;17.584;2022-12-26T04:36:00;2.60;99.90
43143;DHT22;28750;59.842;17.584;2022-12-26T04:38:52;2.60;99.90
43143;DHT22;28750;59.842;17.584;2022-12-26T04:41:38;2.60;99.90
43143;DHT22;28750;59.842;17.584;2022-12-26T04:44:23;2.60;99.90
43143;DHT22;28750;59.842;17.584;2022-12-26T04:46:53;2.60;99.90
43143;DHT22;28750;59.842;17.584;2022-12-26T04:49:21;2.60;99.90
43143;DHT22;28750;59.842;17.584;2022-12-26T04:52:11;2.60;99.90
43143;DHT22;28750;59.842;17.584;2022-12-26T04:54:40;2.60;99.90
43143;DHT22;28750;59.842;17.584;2022-12-26T04:57:07;2.60;99.90
43143;DHT22;28750;59.842;17.584;2022-12-26T04:59:34;2.60;99.90
43143;DHT22;28750;59.842;17.584;2022-12-26T05:02:01;2.60;99.90
43143;DHT22;28750;59.842;17.584;2022-12-26T05:04:45;2.60;99.90
43143;DHT22;28750;59.842;17.584;2022-12-26T05:07:33;2.60;99.90
43143;DHT22;28750;59.842;17.584;2022-12-26T05:10:20;2.60;99.90
43143;DHT22;28750;59.842;17.584;2022-12-26T05:12:48;2.60;99.90
43143;DHT22;28750;59.842;17.584;2022-12-26T05:15:16;2.60;99.90
43143;DHT22;28750;59.842;17.584;2022-12-26T05:17:43;2.60;99.90
43143;DHT22;28750;59.842;17.584;2022-12-26T05:20:28;2.60;99.90
43143;DHT22;28750;59.842;17.584;2022-12-26T05:23:17;2.60;99.90
43143;DHT22;28750;59.842;17.584;2022-12-26T05:26:03;2.60;99.90
43143;DHT22;28750;59.842;17.584;2022-12-26T05:28:57;2.70;99.90
43143;DHT22;28750;59.842;17.584;2022-12-26T05:31:25;2.60;99.90
43143;DHT22;28750;59.842;17.584;2022-12-26T05:33:52;2.60;99.90
43143;DHT22;28750;59.842;17.584;2022-12-26T05:36:43;2.60;99.90
43143;DHT22;28750;59.842;17.584;2022-12-26T05:39:11;2.70;99.90
43143;DHT22;28750;59.842;17.584;2022-12-26T05:41:38;2.70;99.90
43143;DHT22;28750;59.842;17.584;2022-12-26T05:44:06;2.70;99.90
43143;DHT22;28750;59.842;17.584;2022-12-26T05:46:34;2.70;99.90
43143;DHT22;28750;59.842;17.584;2022-12-26T05:49:02;2.70;99.90
43143;DHT22;28750;59.842;17.584;2022-12-26T05:51:29;2.70;99.90
43143;DHT22;28750;59.842;17.584;2022-12-26T05:53:56;2.70;99.90
43143;DHT22;28750;59.842;17.584;2022-12-26T05:56:23;2.70;99.90
43143;DHT22;28750;59.842;17.584;2022-12-26T05:58:55;2.70;99.90
43143;DHT22;28750;59.842;17.584;2022-12-26T06:01:22;2.70;99.90
43143;DHT22;28750;59.842;17.584;2022-12-26T06:03:52;2.70;99.90
43143;DHT22;28750;59.842;17.584;2022-12-26T06:06:20;2.70;99.90
43143;DHT22;28750;59.842;17.584;2022-12-26T06:08:52;2.70;99.90
43143;DHT22;28750;59.842;17.584;2022-12-26T06:11:20;2.70;99.90
43143;DHT22;28750;59.842;17.584;2022-12-26T06:13:47;2.70;99.90
43143;DHT22;28750;59.842;17.584;2022-12-26T06:16:17;2.70;99.90
43143;DHT22;28750;59.842;17.584;2022-12-26T06:18:44;2.70;99.90
43143;DHT22;28750;59.842;17.584;2022-12-26T06:21:14;2.70;99.90
43143;DHT22;28750;59.842;17.584;2022-12-26T06:23:41;2.70;99.90
43143;DHT22;28750;59.842;17.584;2022-12-26T06:26:08;2.80;99.90
43143;DHT22;28750;59.842;17.584;2022-12-26T06:28:37;2.80;99.90
43143;DHT22;28750;59.842;17.584;2022-12-26T06:31:11;2.80;99.90
43143;DHT22;28750;59.842;17.584;2022-12-26T06:33:39;2.80;99.90
43143;DHT22;28750;59.842;17.584;2022-12-26T06:36:09;2.80;99.90
43143;DHT22;28750;59.842;17.584;2022-12-26T06:38:36;2.70;99.90
43143;DHT22;28750;59.842;17.584;2022-12-26T06:41:04;2.80;99.90
43143;DHT22;28750;59.842;17.584;2022-12-26T06:43:32;2.70;99.90
43143;DHT22;28750;59.842;17.584;2022-12-26T06:46:00;2.70;99.90
43143;DHT22;28750;59.842;17.584;2022-12-26T06:48:28;2.70;99.90
43143;DHT22;28750;59.842;17.584;2022-12-26T06:50:55;2.70;99.90
43143;DHT22;28750;59.842;17.584;2022-12-26T06:53:23;2.70;99.90
43143;DHT22;28750;59.842;17.584;2022-12-26T06:55:50;2.70;99.90
43143;DHT22;28750;59.842;17.584;2022-12-26T06:58:17;2.70;99.90
43143;DHT22;28750;59.842;17.584;2022-12-26T07:00:44;2.70;99.90
43143;DHT22;28750;59.842;17.584;2022-12-26T07:03:11;2.70;99.90
43143;DHT22;28750;59.842;17.584;2022-12-26T07:05:38;2.80;99.90
43143;DHT22;28750;59.842;17.584;2022-12-26T07:08:05;2.80;99.90
43143;DHT22;28750;59.842;17.584;2022-12-26T07:10:35;2.70;99.90
43143;DHT22;28750;59.842;17.584;2022-12-26T07:13:02;2.70;99.90
43143;DHT22;28750;59.842;17.584;2022-12-26T07:15:29;2.80;99.90
43143;DHT22;28750;59.842;17.584;2022-12-26T07:17:56;2.70;99.90
43143;DHT22;28750;59.842;17.584;2022-12-26T07:20:23;2.70;99.90
43143;DHT22;28750;59.842;17.584;2022-12-26T07:22:50;2.80;99.90
43143;DHT22;28750;59.842;17.584;2022-12-26T07:25:17;2.80;99.90
43143;DHT22;28750;59.842;17.584;2022-12-26T07:27:44;2.70;99.90
43143;DHT22;28750;59.842;17.584;2022-12-26T07:30:11;2.80;99.90
43143;DHT22;28750;59.842;17.584;2022-12-26T07:32:38;2.80;99.90
43143;DHT22;28750;59.842;17.584;2022-12-26T07:35:05;2.80;99.90
43143;DHT22;28750;59.842;17.584;2022-12-26T07:37:32;2.80;99.90
43143;DHT22;28750;59.842;17.584;2022-12-26T07:39:59;2.80;99.90
43143;DHT22;28750;59.842;17.584;2022-12-26T07:42:26;2.80;99.90
43143;DHT22;28750;59.842;17.584;2022-12-26T07:44:53;2.80;99.90
43143;DHT22;28750;59.842;17.584;2022-12-26T07:47:20;2.80;99.90
43143;DHT22;28750;59.842;17.584;2022-12-26T07:49:47;2.80;99.90
43143;DHT22;28750;59.842;17.584;2022-12-26T07:52:13;2.80;99.90
43143;DHT22;28750;59.842;17.584;2022-12-26T07:54:40;2.90;99.90
43143;DHT22;28750;59.842;17.584;2022-12-26T07:57:07;2.90;99.90
43143;DHT22;28750;59.842;17.584;2022-12-26T07:59:34;2.90;99.90
43143;DHT22;28750;59.842;17.584;2022-12-26T08:02:01;2.90;99.90
43143;DHT22;28750;59.842;17.584;2022-12-26T08:04:30;2.80;99.90
43143;DHT22;28750;59.842;17.584;2022-12-26T08:06:57;2.90;99.90
43143;DHT22;28750;59.842;17.584;2022-12-26T08:09:24;2.90;99.90
43143;DHT22;28750;59.842;17.584;2022-12-26T08:11:51;2.90;99.90
43143;DHT22;28750;59.842;17.584;2022-12-26T08:14:18;2.80;99.90
43143;DHT22;28750;59.842;17.584;2022-12-26T08:16:45;2.90;99.90
43143;DHT22;28750;59.842;17.584;2022-12-26T08:19:12;2.90;99.90
43143;DHT22;28750;59.842;17.584;2022-12-26T08:21:39;2.90;99.90
43143;DHT22;28750;59.842;17.584;2022-12-26T08:24:06;2.90;99.90
43143;DHT22;28750;59.842;17.584;2022-12-26T08:26:32;2.90;99.90
43143;DHT22;28750;59.842;17.584;2022-12-26T08:28:59;2.90;99.90
43143;DHT22;28750;59.842;17.584;2022-12-26T08:31:26;2.90;99.90
43143;DHT22;28750;59.842;17.584;2022-12-26T08:33:54;2.90;99.90
43143;DHT22;28750;59.842;17.584;2022-12-26T08:36:22;2.90;99.90
43143;DHT22;28750;59.842;17.584;2022-12-26T08:38:49;2.90;99.90
43143;DHT22;28750;59.842;17.584;2022-12-26T08:41:16;2.90;99.90
43143;DHT22;28750;59.842;17.584;2022-12-26T08:43:50;2.90;99.90
43143;DHT22;28750;59.842;17.584;2022-12-26T08:46:20;2.90;99.90
43143;DHT22;28750;59.842;17.584;2022-12-26T08:48:47;3.00;99.90
43143;DHT22;28750;59.842;17.584;2022-12-26T08:51:17;3.00;99.90
43143;DHT22;28750;59.842;17.584;2022-12-26T08:53:45;2.90;99.90
43143;DHT22;28750;59.842;17.584;2022-12-26T08:56:16;2.90;99.90
43143;DHT22;28750;59.842;17.584;2022-12-26T08:58:44;2.90;99.90
43143;DHT22;28750;59.842;17.584;2022-12-26T09:01:21;3.00;99.90
43143;DHT22;28750;59.842;17.584;2022-12-26T09:03:52;3.00;99.90
43143;DHT22;28750;59.842;17.584;2022-12-26T09:06:20;3.00;99.90
43143;DHT22;28750;59.842;17.584;2022-12-26T09:08:47;3.10;99.90
43143;DHT22;28750;59.842;17.584;2022-12-26T09:11:16;3.00;99.90
43143;DHT22;28750;59.842;17.584;2022-12-26T09:13:45;3.10;99.90
43143;DHT22;28750;59.842;17.584;2022-12-26T09:16:16;3.10;99.90
43143;DHT22;28750;59.842;17.584;2022-12-26T09:18:43;3.10;99.90
43143;DHT22;28750;59.842;17.584;2022-12-26T09:21:12;3.10;99.90
43143;DHT22;28750;59.842;17.584;2022-12-26T09:23:40;3.20;99.90
43143;DHT22;28750;59.842;17.584;2022-12-26T09:26:10;3.10;99.90
43143;DHT22;28750;59.842;17.584;2022-12-26T09:28:37;3.10;99.90
43143;DHT22;28750;59.842;17.584;2022-12-26T09:31:06;3.10;99.90
43143;DHT22;28750;59.842;17.584;2022-12-26T09:33:33;3.10;99.90
43143;DHT22;28750;59.842;17.584;2022-12-26T09:36:05;3.20;99.90
43143;DHT22;28750;59.842;17.584;2022-12-26T09:38:32;3.20;99.90
43143;DHT22;28750;59.842;17.584;2022-12-26T09:52:18;3.30;99.90
43143;DHT22;28750;59.842;17.584;2022-12-26T09:54:55;3.30;99.90
43143;DHT22;28750;59.842;17.584;2022-12-26T09:57:35;3.30;99.90
43143;DHT22;28750;59.842;17.584;2022-12-26T10:00:05;3.40;99.90
43143;DHT22;28750;59.842;17.584;2022-12-26T10:02:32;3.40;99.90
43143;DHT22;28750;59.842;17.584;2022-12-26T10:05:00;3.40;99.90
43143;DHT22;28750;59.842;17.584;2022-12-26T10:07:41;3.40;99.90
43143;DHT22;28750;59.842;17.584;2022-12-26T10:10:23;3.50;99.90
43143;DHT22;28750;59.842;17.584;2022-12-26T10:13:20;3.40;99.90
43143;DHT22;28750;59.842;17.584;2022-12-26T10:15:53;3.50;99.90
43143;DHT22;28750;59.842;17.584;2022-12-26T10:18:27;3.40;99.90
43143;DHT22;28750;59.842;17.584;2022-12-26T10:24:07;3.40;99.90
43143;DHT22;28750;59.842;17.584;2022-12-26T10:26:41;3.40;99.90
43143;DHT22;28750;59.842;17.584;2022-12-26T10:29:17;3.50;99.90
43143;DHT22;28750;59.842;17.584;2022-12-26T10:31:49;3.50;99.90
43143;DHT22;28750;59.842;17.584;2022-12-26T10:34:25;3.50;99.90
43143;DHT22;28750;59.842;17.584;2022-12-26T10:36:58;3.50;99.90
43143;DHT22;28750;59.842;17.584;2022-12-26T10:39:53;3.50;99.90
43143;DHT22;28750;59.842;17.584;2022-12-26T10:45:24;3.50;99.90
43143;DHT22;28750;59.842;17.584;2022-12-26T10:47:54;3.50;99.90
43143;DHT22;28750;59.842;17.584;2022-12-26T10:50:31;3.60;99.90
43143;DHT22;28750;59.842;17.584;2022-12-26T10:53:00;3.50;99.90
43143;DHT22;28750;59.842;17.584;2022-12-26T10:55:31;3.50;99.90
43143;DHT22;28750;59.842;17.584;2022-12-26T10:58:20;3.50;99.90
43143;DHT22;28750;59.842;17.584;2022-12-26T11:00:48;3.50;99.90
43143;DHT22;28750;59.842;17.584;2022-12-26T11:03:17;3.50;99.90
43143;DHT22;28750;59.842;17.584;2022-12-26T11:05:46;3.40;99.90
43143;DHT22;28750;59.842;17.584;2022-12-26T11:08:36;3.50;99.90
43143;DHT22;28750;59.842;17.584;2022-12-26T11:11:06;3.40;99.90
43143;DHT22;28750;59.842;17.584;2022-12-26T11:13:45;3.50;99.90
43143;DHT22;28750;59.842;17.584;2022-12-26T11:16:12;3.50;99.90
43143;DHT22;28750;59.842;17.584;2022-12-26T11:18:50;3.50;99.90
43143;DHT22;28750;59.842;17.584;2022-12-26T11:23:49;3.40;99.90
43143;DHT22;28750;59.842;17.584;2022-12-26T11:26:25;3.50;99.90
43143;DHT22;28750;59.842;17.584;2022-12-26T11:31:52;3.60;99.90
43143;DHT22;28750;59.842;17.584;2022-12-26T11:34:38;3.60;99.90
43143;DHT22;28750;59.842;17.584;2022-12-26T11:37:26;3.50;99.90
43143;DHT22;28750;59.842;17.584;2022-12-26T11:39:55;3.60;99.90
43143;DHT22;28750;59.842;17.584;2022-12-26T11:42:23;3.60;99.90
43143;DHT22;28750;59.842;17.584;2022-12-26T11:44:54;3.60;99.90
43143;DHT22;28750;59.842;17.584;2022-12-26T11:47:26;3.60;99.90
43143;DHT22;28750;59.842;17.584;2022-12-26T11:50:14;3.60;99.90
43143;DHT22;28750;59.842;17.584;2022-12-26T11:58:21;3.60;99.90
43143;DHT22;28750;59.842;17.584;2022-12-26T12:08:41;3.60;99.90
43143;DHT22;28750;59.842;17.584;2022-12-26T12:17:10;3.50;99.90
43143;DHT22;28750;59.842;17.584;2022-12-26T12:31:16;3.60;99.90
43143;DHT22;28750;59.842;17.584;2022-12-26T12:42:08;3.60;99.90
43143;DHT22;28750;59.842;17.584;2022-12-26T12:50:28;3.60;99.90
43143;DHT22;28750;59.842;17.584;2022-12-26T12:58:55;3.60;99.90
43143;DHT22;28750;59.842;17.584;2022-12-26T13:01:33;3.60;99.90
43143;DHT22;28750;59.842;17.584;2022-12-26T13:04:12;3.60;99.90
43143;DHT22;28750;59.842;17.584;2022-12-26T13:07:08;3.60;99.90
43143;DHT22;28750;59.842;17.584;2022-12-26T13:09:50;3.60;99.90
43143;DHT22;28750;59.842;17.584;2022-12-26T13:12:21;3.60;99.90
43143;DHT22;28750;59.842;17.584;2022-12-26T13:14:51;3.50;99.90
43143;DHT22;28750;59.842;17.584;2022-12-26T13:17:29;3.60;99.90
43143;DHT22;28750;59.842;17.584;2022-12-26T13:20:16;3.60;99.90
43143;DHT22;28750;59.842;17.584;2022-12-26T13:22:48;3.60;99.90
43143;DHT22;28750;59.842;17.584;2022-12-26T13:26:10;3.50;99.90
43143;DHT22;28750;59.842;17.584;2022-12-26T13:29:27;3.50;99.90
43143;DHT22;28750;59.842;17.584;2022-12-26T13:31:35;3.60;99.90
43143;DHT22;28750;59.842;17.584;2022-12-26T13:34:04;3.50;99.90
43143;DHT22;28750;59.842;17.584;2022-12-26T13:36:37;3.50;99.90
43143;DHT22;28750;59.842;17.584;2022-12-26T13:44:51;3.50;99.90
43143;DHT22;28750;59.842;17.584;2022-12-26T13:47:35;3.60;99.90
43143;DHT22;28750;59.842;17.584;2022-12-26T13:55:52;3.50;99.90
43143;DHT22;28750;59.842;17.584;2022-12-26T14:00:49;3.50;99.90
43143;DHT22;28750;59.842;17.584;2022-12-26T14:06:49;3.60;99.90
43143;DHT22;28750;59.842;17.584;2022-12-26T14:15:52;3.50;99.90
43143;DHT22;28750;59.842;17.584;2022-12-26T14:18:52;3.50;99.90
43143;DHT22;28750;59.842;17.584;2022-12-26T14:21:30;3.50;99.90
43143;DHT22;28750;59.842;17.584;2022-12-26T14:26:50;3.40;99.90
43143;DHT22;28750;59.842;17.584;2022-12-26T14:32:46;3.50;99.90
43143;DHT22;28750;59.842;17.584;2022-12-26T14:40:35;3.50;99.90
43143;DHT22;28750;59.842;17.584;2022-12-26T14:45:38;3.40;99.90
43143;DHT22;28750;59.842;17.584;2022-12-26T14:50:44;3.40;99.90
43143;DHT22;28750;59.842;17.584;2022-12-26T14:58:31;3.40;99.90
43143;DHT22;28750;59.842;17.584;2022-12-26T15:03:50;3.40;99.90
43143;DHT22;28750;59.842;17.584;2022-12-26T15:12:47;3.40;99.90
43143;DHT22;28750;59.842;17.584;2022-12-26T15:15:33;3.40;99.90
43143;DHT22;28750;59.842;17.584;2022-12-26T15:18:34;3.30;99.90
43143;DHT22;28750;59.842;17.584;2022-12-26T15:38:42;3.40;99.90
43143;DHT22;28750;59.842;17.584;2022-12-26T15:41:37;3.40;99.90
43143;DHT22;28750;59.842;17.584;2022-12-26T15:44:34;3.40;99.90
43143;DHT22;28750;59.842;17.584;2022-12-26T15:47:36;3.30;99.90
43143;DHT22;28750;59.842;17.584;2022-12-26T15:50:25;3.40;99.90
43143;DHT22;28750;59.842;17.584;2022-12-26T16:00:47;3.30;99.90
43143;DHT22;28750;59.842;17.584;2022-12-26T16:03:36;3.30;99.90
43143;DHT22;28750;59.842;17.584;2022-12-26T16:08:57;3.30;99.90
43143;DHT22;28750;59.842;17.584;2022-12-26T16:11:41;3.30;99.90
43143;DHT22;28750;59.842;17.584;2022-12-26T16:14:30;3.20;99.90
43143;DHT22;28750;59.842;17.584;2022-12-26T16:19:48;3.20;99.90
43143;DHT22;28750;59.842;17.584;2022-12-26T16:25:19;3.20;99.90
43143;DHT22;28750;59.842;17.584;2022-12-26T16:27:50;3.20;99.90
43143;DHT22;28750;59.842;17.584;2022-12-26T16:30:24;3.20;99.90
43143;DHT22;28750;59.842;17.584;2022-12-26T16:32:53;3.10;99.90
43143;DHT22;28750;59.842;17.584;2022-12-26T16:35:30;3.10;99.90
43143;DHT22;28750;59.842;17.584;2022-12-26T16:38:00;3.10;99.90
43143;DHT22;28750;59.842;17.584;2022-12-26T16:40:30;3.10;99.90
43143;DHT22;28750;59.842;17.584;2022-12-26T16:43:28;3.10;99.90
43143;DHT22;28750;59.842;17.584;2022-12-26T16:45:58;3.10;99.90
43143;DHT22;28750;59.842;17.584;2022-12-26T16:48:30;3.00;99.90
43143;DHT22;28750;59.842;17.584;2022-12-26T16:51:00;3.00;99.90
43143;DHT22;28750;59.842;17.584;2022-12-26T17:01:37;2.90;99.90
43143;DHT22;28750;59.842;17.584;2022-12-26T17:04:15;2.90;99.90
43143;DHT22;28750;59.842;17.584;2022-12-26T17:06:59;2.90;99.90
43143;DHT22;28750;59.842;17.584;2022-12-26T17:09:29;2.90;99.90
43143;DHT22;28750;59.842;17.584;2022-12-26T17:12:02;2.90;99.90
43143;DHT22;28750;59.842;17.584;2022-12-26T17:14:38;2.90;99.90
43143;DHT22;28750;59.842;17.584;2022-12-26T17:17:24;2.90;99.90
43143;DHT22;28750;59.842;17.584;2022-12-26T17:19:56;2.90;99.90
43143;DHT22;28750;59.842;17.584;2022-12-26T17:22:33;2.80;99.90
43143;DHT22;28750;59.842;17.584;2022-12-26T17:25:26;2.80;99.90
43143;DHT22;28750;59.842;17.584;2022-12-26T17:30:39;2.80;99.90
43143;DHT22;28750;59.842;17.584;2022-12-26T17:35:55;2.80;99.90
43143;DHT22;28750;59.842;17.584;2022-12-26T17:38:25;2.80;99.90
43143;DHT22;28750;59.842;17.584;2022-12-26T17:40:55;2.80;99.90
43143;DHT22;28750;59.842;17.584;2022-12-26T17:43:34;2.70;99.90
43143;DHT22;28750;59.842;17.584;2022-12-26T17:46:02;2.80;99.90
43143;DHT22;28750;59.842;17.584;2022-12-26T17:48:29;2.80;99.90
43143;DHT22;28750;59.842;17.584;2022-12-26T17:51:02;2.70;99.90
43143;DHT22;28750;59.842;17.584;2022-12-26T17:53:45;2.70;99.90
43143;DHT22;28750;59.842;17.584;2022-12-26T17:56:15;2.70;99.90
43143;DHT22;28750;59.842;17.584;2022-12-26T17:58:46;2.70;99.90
43143;DHT22;28750;59.842;17.584;2022-12-26T18:01:13;2.70;99.90
43143;DHT22;28750;59.842;17.584;2022-12-26T18:03:41;2.70;99.90
43143;DHT22;28750;59.842;17.584;2022-12-26T18:06:12;2.70;99.90
43143;DHT22;28750;59.842;17.584;2022-12-26T18:08:41;2.70;99.90
43143;DHT22;28750;59.842;17.584;2022-12-26T18:11:10;2.70;99.90
43143;DHT22;28750;59.842;17.584;2022-12-26T18:13:38;2.60;99.90
43143;DHT22;28750;59.842;17.584;2022-12-26T18:16:06;2.60;99.90
43143;DHT22;28750;59.842;17.584;2022-12-26T18:18:35;2.60;99.90
43143;DHT22;28750;59.842;17.584;2022-12-26T18:21:05;2.60;99.90
43143;DHT22;28750;59.842;17.584;2022-12-26T18:23:32;2.70;99.90
43143;DHT22;28750;59.842;17.584;2022-12-26T18:26:05;2.70;99.90
43143;DHT22;28750;59.842;17.584;2022-12-26T18:28:33;2.60;99.90
43143;DHT22;28750;59.842;17.584;2022-12-26T18:31:00;2.60;99.90
43143;DHT22;28750;59.842;17.584;2022-12-26T18:33:27;2.60;99.90
43143;DHT22;28750;59.842;17.584;2022-12-26T18:35:54;2.60;99.90
43143;DHT22;28750;59.842;17.584;2022-12-26T18:38:21;2.60;99.90
43143;DHT22;28750;59.842;17.584;2022-12-26T18:40:50;2.60;99.90
43143;DHT22;28750;59.842;17.584;2022-12-26T18:43:18;2.60;99.90
43143;DHT22;28750;59.842;17.584;2022-12-26T18:45:45;2.60;99.90
43143;DHT22;28750;59.842;17.584;2022-12-26T18:48:14;2.60;99.90
43143;DHT22;28750;59.842;17.584;2022-12-26T18:50:42;2.50;99.90
43143;DHT22;28750;59.842;17.584;2022-12-26T18:53:10;2.60;99.90
43143;DHT22;28750;59.842;17.584;2022-12-26T18:55:38;2.50;99.90
43143;DHT22;28750;59.842;17.584;2022-12-26T18:58:05;2.50;99.90
43143;DHT22;28750;59.842;17.584;2022-12-26T19:00:32;2.60;99.90
43143;DHT22;28750;59.842;17.584;2022-12-26T19:03:00;2.60;99.90
43143;DHT22;28750;59.842;17.584;2022-12-26T19:05:31;2.50;99.90
43143;DHT22;28750;59.842;17.584;2022-12-26T19:08:00;2.60;99.90
43143;DHT22;28750;59.842;17.584;2022-12-26T19:10:30;2.60;99.90
43143;DHT22;28750;59.842;17.584;2022-12-26T19:12:57;2.60;99.90
43143;DHT22;28750;59.842;17.584;2022-12-26T19:15:29;2.60;99.90
43143;DHT22;28750;59.842;17.584;2022-12-26T19:17:56;2.60;99.90
43143;DHT22;28750;59.842;17.584;2022-12-26T19:20:25;2.50;99.90
43143;DHT22;28750;59.842;17.584;2022-12-26T19:22:53;2.50;99.90
43143;DHT22;28750;59.842;17.584;2022-12-26T19:25:22;2.60;99.90
43143;DHT22;28750;59.842;17.584;2022-12-26T19:27:49;2.50;99.90
43143;DHT22;28750;59.842;17.584;2022-12-26T19:30:17;2.50;99.90
43143;DHT22;28750;59.842;17.584;2022-12-26T19:32:44;2.50;99.90
43143;DHT22;28750;59.842;17.584;2022-12-26T19:35:12;2.50;99.90
43143;DHT22;28750;59.842;17.584;2022-12-26T19:37:40;2.50;99.90
43143;DHT22;28750;59.842;17.584;2022-12-26T19:40:08;2.60;99.90
43143;DHT22;28750;59.842;17.584;2022-12-26T19:42:35;2.50;99.90
43143;DHT22;28750;59.842;17.584;2022-12-26T19:45:03;2.60;99.90
43143;DHT22;28750;59.842;17.584;2022-12-26T19:47:31;2.60;99.90